createdAt,value
2023-01-08T00:01:14.917Z,13.51
2023-01-08T00:03:43.028Z,13.67
2023-01-08T00:06:15.451Z,13.42
2023-01-08T00:08:45.055Z,13.41
2023-01-08T00:11:13.386Z,13.63
2023-01-08T00:13:41.938Z,13.65
2023-01-08T00:16:12.428Z,13.76
2023-01-08T00:18:40.559Z,13.69
2023-01-08T00:21:08.914Z,13.83
2023-01-08T00:23:38.071Z,13.82
2023-01-08T00:26:10.094Z,13.88
2023-01-08T00:28:39.270Z,13.73
2023-01-08T00:31:07.965Z,13.85
2023-01-08T00:33:37.523Z,13.79
2023-01-08T00:36:08.822Z,13.54
2023-01-08T00:38:36.779Z,13.78
2023-01-08T00:41:05.895Z,13.73
2023-01-08T00:43:35.292Z,13.37
2023-01-08T00:46:03.282Z,13.28
2023-01-08T00:48:31.353Z,13.46
2023-01-08T00:50:59.191Z,13.43
2023-01-08T00:53:27.104Z,13.34
2023-01-08T00:56:02.102Z,13.23
2023-01-08T00:58:30.266Z,13.22
2023-01-08T01:01:00.362Z,13.09
2023-01-08T01:03:28.927Z,13.11
2023-01-08T01:06:02.818Z,12.86
2023-01-08T01:08:31.128Z,12.53
2023-01-08T01:10:59.019Z,12.91
2023-01-08T01:13:26.857Z,12.62
2023-01-08T01:16:03.958Z,12.82
2023-01-08T01:18:32.582Z,12.65
2023-01-08T01:21:00.560Z,12.63
2023-01-08T01:23:28.970Z,12.57
2023-01-08T01:25:56.715Z,12.62
2023-01-08T01:28:24.686Z,12.55
2023-01-08T01:30:57.348Z,12.55
2023-01-08T01:33:26.597Z,12.61
2023-01-08T01:36:02.299Z,12.64
2023-01-08T01:38:30.615Z,12.64
2023-01-08T01:40:58.647Z,12.57
2023-01-08T01:43:37.190Z,12.66
2023-01-08T01:46:05.975Z,12.54
2023-01-08T01:48:35.537Z,12.59
2023-01-08T01:51:04.218Z,12.53
2023-01-08T01:53:35.818Z,12.48
2023-01-08T01:56:05.666Z,12.60
2023-01-08T01:58:33.845Z,12.58
2023-01-08T02:01:05.601Z,12.55
2023-01-08T02:03:37.554Z,12.51
2023-01-08T02:06:17.616Z,12.46
2023-01-08T02:08:56.345Z,12.39
2023-01-08T02:11:31.630Z,12.49
2023-01-08T02:14:06.421Z,12.27
2023-01-08T02:16:41.413Z,12.39
2023-01-08T02:19:22.007Z,12.49
2023-01-08T02:22:04.101Z,12.54
2023-01-08T02:24:44.608Z,12.33
2023-01-08T02:27:16.065Z,12.26
2023-01-08T02:29:45.254Z,12.50
2023-01-08T02:32:13.078Z,12.64
2023-01-08T02:34:41.500Z,12.57
2023-01-08T02:37:10.884Z,12.66
2023-01-08T02:39:57.991Z,12.72
2023-01-08T02:42:36.521Z,12.73
2023-01-08T02:45:11.626Z,12.55
2023-01-08T02:47:44.876Z,12.75
2023-01-08T02:50:21.364Z,12.73
2023-01-08T02:52:56.975Z,12.76
2023-01-08T02:55:26.551Z,12.74
2023-01-08T02:57:56.480Z,12.66
2023-01-08T03:00:25.052Z,12.76
2023-01-08T03:03:01.682Z,12.78
2023-01-08T03:05:30.553Z,12.59
2023-01-08T03:07:58.752Z,12.73
2023-01-08T03:10:30.005Z,12.73
2023-01-08T03:13:02.720Z,12.73
2023-01-08T03:15:35.777Z,12.60
2023-01-08T03:18:10.951Z,12.68
2023-01-08T03:20:40.558Z,12.69
2023-01-08T03:23:12.135Z,12.66
2023-01-08T03:25:43.914Z,12.34
2023-01-08T03:28:17.696Z,12.43
2023-01-08T03:30:48.735Z,12.48
2023-01-08T03:33:18.668Z,12.52
2023-01-08T03:35:51.637Z,12.51
2023-01-08T03:38:24.147Z,12.41
2023-01-08T03:40:56.653Z,12.43
2023-01-08T03:43:26.287Z,12.39
2023-01-08T03:45:59.740Z,12.40
2023-01-08T03:48:29.602Z,12.34
2023-01-08T03:50:57.656Z,12.27
2023-01-08T03:53:26.289Z,12.16
2023-01-08T03:55:54.266Z,12.13
2023-01-08T03:58:22.306Z,12.19
2023-01-08T04:00:53.219Z,12.16
2023-01-08T04:03:21.241Z,12.07
2023-01-08T04:05:49.142Z,12.01
2023-01-08T04:08:17.547Z,12.07
2023-01-08T04:10:45.422Z,12.05
2023-01-08T04:13:13.152Z,12.02
2023-01-08T04:15:41.042Z,12.03
2023-01-08T04:18:10.665Z,12.06
2023-01-08T04:20:38.555Z,12.05
2023-01-08T04:23:06.787Z,11.87
2023-01-08T04:25:34.672Z,12.05
2023-01-08T04:28:02.559Z,11.70
2023-01-08T04:30:30.378Z,12.00
2023-01-08T04:32:58.762Z,11.80
2023-01-08T04:35:28.133Z,11.93
2023-01-08T04:37:56.497Z,11.92
2023-01-08T04:40:24.403Z,11.83
2023-01-08T04:42:52.308Z,11.78
2023-01-08T04:45:21.101Z,11.73
2023-01-08T04:47:49.197Z,11.93
2023-01-08T04:50:17.165Z,11.85
2023-01-08T04:52:47.015Z,11.86
2023-01-08T04:55:15.050Z,11.88
2023-01-08T04:57:43.235Z,11.89
2023-01-08T05:00:12.613Z,11.84
2023-01-08T05:02:40.880Z,11.86
2023-01-08T05:05:09.211Z,11.64
2023-01-08T05:07:37.544Z,11.83
2023-01-08T05:10:08.316Z,11.79
2023-01-08T05:12:36.151Z,11.76
2023-01-08T05:15:04.617Z,11.76
2023-01-08T05:17:32.395Z,11.70
2023-01-08T05:20:00.335Z,11.67
2023-01-08T05:22:29.064Z,11.55
2023-01-08T05:24:56.869Z,11.65
2023-01-08T05:27:26.269Z,11.57
2023-01-08T05:29:53.995Z,11.67
2023-01-08T05:32:21.799Z,11.58
2023-01-08T05:34:50.484Z,11.26
2023-01-08T05:37:18.879Z,11.50
2023-01-08T05:39:46.714Z,11.19
2023-01-08T05:42:14.467Z,11.58
2023-01-08T05:44:43.700Z,11.37
2023-01-08T05:47:11.778Z,11.43
2023-01-08T05:49:39.519Z,11.45
2023-01-08T05:52:07.777Z,11.50
2023-01-08T05:54:35.672Z,11.48
2023-01-08T05:57:03.444Z,11.38
2023-01-08T05:59:31.735Z,11.43
2023-01-08T06:02:01.271Z,11.41
2023-01-08T06:04:29.282Z,11.34
2023-01-08T06:06:57.645Z,11.23
2023-01-08T06:09:25.572Z,11.40
2023-01-08T06:11:53.909Z,11.31
2023-01-08T06:14:22.314Z,11.38
2023-01-08T06:16:50.131Z,11.35
2023-01-08T06:19:19.472Z,11.35
2023-01-08T06:21:47.681Z,11.31
2023-01-08T06:24:15.492Z,11.04
2023-01-08T06:26:43.364Z,11.26
2023-01-08T06:29:11.769Z,11.32
2023-01-08T06:31:39.751Z,11.31
2023-01-08T06:34:07.580Z,11.31
2023-01-08T06:36:37.285Z,11.19
2023-01-08T06:39:06.729Z,11.16
2023-01-08T06:41:34.852Z,11.08
2023-01-08T06:44:03.261Z,11.01
2023-01-08T06:46:31.785Z,11.21
2023-01-08T06:48:59.688Z,10.95
2023-01-08T06:51:28.009Z,11.15
2023-01-08T06:53:57.202Z,11.18
2023-01-08T06:56:25.133Z,11.19
2023-01-08T06:58:53.671Z,11.05
2023-01-08T07:01:23.079Z,10.94
2023-01-08T07:03:50.907Z,11.18
2023-01-08T07:06:21.404Z,11.11
2023-01-08T07:08:49.907Z,11.19
2023-01-08T07:11:19.067Z,11.06
2023-01-08T07:13:47.419Z,11.21
2023-01-08T07:16:16.310Z,10.83
2023-01-08T07:18:44.901Z,11.23
2023-01-08T07:21:13.642Z,11.24
2023-01-08T07:23:42.018Z,11.24
2023-01-08T07:26:09.943Z,11.29
2023-01-08T07:28:39.847Z,11.30
2023-01-08T07:31:07.848Z,11.34
2023-01-08T07:33:36.360Z,11.37
2023-01-08T07:36:04.750Z,11.38
2023-01-08T07:38:32.600Z,11.46
2023-01-08T07:41:00.387Z,11.48
2023-01-08T07:43:30.043Z,11.48
2023-01-08T07:45:59.312Z,11.31
2023-01-08T07:48:26.980Z,11.57
2023-01-08T07:50:54.762Z,11.58
2023-01-08T07:53:22.455Z,11.61
2023-01-08T07:55:50.147Z,11.62
2023-01-08T07:58:18.299Z,11.65
2023-01-08T08:00:48.481Z,11.65
2023-01-08T08:03:17.741Z,11.69
2023-01-08T08:05:46.140Z,11.50
2023-01-08T08:08:15.025Z,11.56
2023-01-08T08:10:43.796Z,11.67
2023-01-08T08:13:12.698Z,11.67
2023-01-08T08:15:41.244Z,11.66
2023-01-08T08:18:09.868Z,11.65
2023-01-08T08:20:40.064Z,11.67
2023-01-08T08:23:09.718Z,11.70
2023-01-08T08:25:38.169Z,11.63
2023-01-08T08:28:06.883Z,11.66
2023-01-08T08:30:36.550Z,11.76
2023-01-08T08:33:06.392Z,11.79
2023-01-08T08:35:35.573Z,11.81
2023-01-08T08:38:04.974Z,11.84
2023-01-08T08:40:32.975Z,11.85
2023-01-08T08:43:02.547Z,11.86
2023-01-08T08:45:30.647Z,11.87
2023-01-08T08:47:58.370Z,11.87
2023-01-08T08:50:26.686Z,11.86
2023-01-08T08:52:59.495Z,11.83
2023-01-08T08:55:29.189Z,11.86
2023-01-08T08:58:03.858Z,11.84
2023-01-08T09:00:32.410Z,11.86
2023-01-08T09:03:00.232Z,11.86
2023-01-08T09:05:28.670Z,11.84
2023-01-08T09:07:57.187Z,11.83
2023-01-08T09:10:25.231Z,11.85
2023-01-08T09:12:54.948Z,11.83
2023-01-08T09:15:22.781Z,11.83
2023-01-08T09:17:55.674Z,11.84
2023-01-08T09:20:25.062Z,11.68
2023-01-08T09:22:52.961Z,11.84
2023-01-08T09:25:20.892Z,11.86
2023-01-08T09:27:48.951Z,11.88
2023-01-08T09:30:18.188Z,11.89
2023-01-08T09:32:45.915Z,11.91
2023-01-08T09:35:14.179Z,11.83
2023-01-08T09:37:41.975Z,11.93
2023-01-08T09:40:16.825Z,11.96
2023-01-08T09:42:44.750Z,11.98
2023-01-08T09:45:28.743Z,12.09
2023-01-08T09:47:59.237Z,12.12
2023-01-08T09:50:29.295Z,12.17
2023-01-08T09:52:58.476Z,12.07
2023-01-08T09:55:26.823Z,12.28
2023-01-08T09:57:55.468Z,12.23
2023-01-08T10:00:29.053Z,12.36
2023-01-08T10:02:58.452Z,12.25
2023-01-08T10:05:27.991Z,12.38
2023-01-08T10:07:56.503Z,12.37
2023-01-08T10:10:30.119Z,12.38
2023-01-08T10:12:58.103Z,12.28
2023-01-08T10:15:27.395Z,12.39
2023-01-08T10:18:01.898Z,12.42
2023-01-08T10:20:29.908Z,12.43
2023-01-08T10:22:57.819Z,12.47
2023-01-08T10:25:28.734Z,12.46
2023-01-08T10:28:00.267Z,12.49
2023-01-08T10:30:41.669Z,12.52
2023-01-08T10:33:15.887Z,12.52
2023-01-08T10:35:44.601Z,12.46
2023-01-08T10:38:26.939Z,12.44
2023-01-08T10:40:55.119Z,12.54
2023-01-08T10:43:28.670Z,12.58
2023-01-08T10:46:01.640Z,12.48
2023-01-08T10:48:34.880Z,12.60
2023-01-08T10:51:08.378Z,12.58
2023-01-08T10:53:36.119Z,12.60
2023-01-08T10:56:05.638Z,12.61
2023-01-08T10:58:42.883Z,12.57
2023-01-08T11:01:17.436Z,12.58
2023-01-08T11:03:50.701Z,12.60
2023-01-08T11:06:22.650Z,12.65
2023-01-08T11:08:52.577Z,12.64
2023-01-08T11:11:21.086Z,12.66
2023-01-08T11:13:58.769Z,12.76
2023-01-08T11:16:36.740Z,12.62
2023-01-08T11:19:05.910Z,12.65
2023-01-08T11:21:36.143Z,12.74
2023-01-08T11:24:13.446Z,12.52
2023-01-08T11:26:45.027Z,12.73
2023-01-08T11:29:17.164Z,12.73
2023-01-08T11:31:53.700Z,12.57
2023-01-08T11:34:27.295Z,12.51
2023-01-08T11:37:00.480Z,12.71
2023-01-08T11:39:28.873Z,12.59
2023-01-08T11:42:22.116Z,12.65
2023-01-08T11:45:06.659Z,12.68
2023-01-08T11:47:52.648Z,12.63
2023-01-08T11:50:23.990Z,12.53
2023-01-08T11:53:07.478Z,12.47
2023-01-08T11:55:47.863Z,12.64
2023-01-08T11:58:35.033Z,12.64
2023-01-08T12:01:27.159Z,12.68
2023-01-08T12:04:17.253Z,12.62
2023-01-08T12:06:53.959Z,12.78
2023-01-08T12:09:36.829Z,12.83
2023-01-08T12:12:16.331Z,12.85
2023-01-08T12:14:56.382Z,12.87
2023-01-08T12:17:58.693Z,12.90
2023-01-08T12:20:36.761Z,12.94
2023-01-08T12:23:16.549Z,12.97
2023-01-08T12:25:58.459Z,12.83
2023-01-08T12:29:00.271Z,12.97
2023-01-08T12:32:01.845Z,12.88
2023-01-08T12:34:43.307Z,12.96
2023-01-08T12:37:18.212Z,12.98
2023-01-08T12:39:51.446Z,12.93
2023-01-08T12:42:24.752Z,12.71
2023-01-08T12:44:55.687Z,12.87
2023-01-08T12:47:28.844Z,13.04
2023-01-08T12:50:06.577Z,12.67
2023-01-08T12:52:41.885Z,13.06
2023-01-08T12:55:31.608Z,13.08
2023-01-08T12:58:08.142Z,13.09
2023-01-08T13:00:41.925Z,13.05
2023-01-08T13:03:16.141Z,13.08
2023-01-08T13:05:44.981Z,13.08
2023-01-08T13:08:33.465Z,12.87
2023-01-08T13:11:02.473Z,12.82
2023-01-08T13:13:32.794Z,13.08
2023-01-08T13:16:18.922Z,13.11
2023-01-08T13:18:57.556Z,13.15
2023-01-08T13:21:31.959Z,13.11
2023-01-08T13:24:26.785Z,13.16
2023-01-08T13:26:55.289Z,13.18
2023-01-08T13:29:37.912Z,13.18
2023-01-08T13:32:06.568Z,13.22
2023-01-08T13:34:40.560Z,13.24
2023-01-08T13:37:16.477Z,13.23
2023-01-08T13:39:52.326Z,13.28
2023-01-08T13:42:29.087Z,13.25
2023-01-08T13:45:02.202Z,13.31
2023-01-08T13:47:33.577Z,13.32
2023-01-08T13:50:04.217Z,13.31
2023-01-08T13:52:43.216Z,13.31
2023-01-08T13:55:19.195Z,13.31
2023-01-08T13:57:50.870Z,13.22
2023-01-08T14:00:23.631Z,13.28
2023-01-08T14:02:52.169Z,13.31
2023-01-08T14:05:23.368Z,13.24
2023-01-08T14:07:51.436Z,13.25
2023-01-08T14:10:21.870Z,13.19
2023-01-08T14:12:51.351Z,13.30
2023-01-08T14:15:24.293Z,13.24
2023-01-08T14:17:52.787Z,12.98
2023-01-08T14:20:34.310Z,13.18
2023-01-08T14:23:04.522Z,13.18
2023-01-08T14:25:33.762Z,13.14
2023-01-08T14:28:04.189Z,13.18
2023-01-08T14:30:32.954Z,13.23
2023-01-08T14:33:01.871Z,12.95
2023-01-08T14:35:34.889Z,13.25
2023-01-08T14:38:05.713Z,13.15
2023-01-08T14:40:38.483Z,13.26
2023-01-08T14:43:10.555Z,13.25
2023-01-08T14:45:41.418Z,13.24
2023-01-08T14:48:16.546Z,13.23
2023-01-08T14:50:46.534Z,13.22
2023-01-08T14:53:25.322Z,13.24
2023-01-08T14:55:58.296Z,13.22
2023-01-08T14:58:28.000Z,13.19
2023-01-08T15:01:00.530Z,13.15
2023-01-08T15:03:32.176Z,12.92
2023-01-08T15:06:00.964Z,13.14
2023-01-08T15:08:34.527Z,13.12
2023-01-08T15:11:07.483Z,12.89
2023-01-08T15:13:38.139Z,13.15
2023-01-08T15:16:10.364Z,13.17
2023-01-08T15:18:44.488Z,13.18
2023-01-08T15:21:18.767Z,13.18
2023-01-08T15:23:49.687Z,13.18
2023-01-08T15:26:20.045Z,13.19
2023-01-08T15:28:52.542Z,13.15
2023-01-08T15:31:28.845Z,13.13
2023-01-08T15:33:57.086Z,13.14
2023-01-08T15:36:24.819Z,13.15
2023-01-08T15:38:53.806Z,13.17
2023-01-08T15:41:41.899Z,13.10
2023-01-08T15:44:12.822Z,13.05
2023-01-08T15:46:40.619Z,13.14
2023-01-08T15:49:08.460Z,13.17
2023-01-08T15:51:38.507Z,13.18
2023-01-08T15:54:06.578Z,13.19
2023-01-08T15:56:35.869Z,12.84
2023-01-08T15:59:03.918Z,13.13
2023-01-08T16:01:33.711Z,13.20
2023-01-08T16:04:01.866Z,13.20
2023-01-08T16:06:29.768Z,13.20
2023-01-08T16:09:00.344Z,13.18
2023-01-08T16:11:28.187Z,13.19
2023-01-08T16:13:57.805Z,12.82
2023-01-08T16:16:25.780Z,13.06
2023-01-08T16:18:53.667Z,13.17
2023-01-08T16:21:21.821Z,13.18
2023-01-08T16:23:49.705Z,12.95
2023-01-08T16:26:17.855Z,13.09
2023-01-08T16:34:26.458Z,13.14
2023-01-08T16:39:43.905Z,13.00
2023-01-08T16:42:12.086Z,13.09
2023-01-08T16:44:41.147Z,12.95
2023-01-08T16:47:10.756Z,12.76
2023-01-08T16:49:40.820Z,12.99
2023-01-08T16:52:10.972Z,12.99
2023-01-08T16:54:39.130Z,12.89
2023-01-08T16:57:07.046Z,12.68
2023-01-08T16:59:35.695Z,12.75
2023-01-08T17:02:03.620Z,12.88
2023-01-08T17:04:33.538Z,12.85
2023-01-08T17:07:01.639Z,12.87
2023-01-08T17:09:29.500Z,12.68
2023-01-08T17:11:57.451Z,12.78
2023-01-08T17:14:25.940Z,12.84
2023-01-08T17:16:53.697Z,12.84
2023-01-08T17:19:24.458Z,12.62
2023-01-08T17:21:54.512Z,12.85
2023-01-08T17:24:22.446Z,12.57
2023-01-08T17:26:50.560Z,12.69
2023-01-08T17:29:18.911Z,12.67
2023-01-08T17:31:46.808Z,12.66
2023-01-08T17:34:15.174Z,12.81
2023-01-08T17:36:43.713Z,12.48
2023-01-08T17:39:13.763Z,12.70
2023-01-08T17:41:59.667Z,12.48
2023-01-08T17:44:27.872Z,12.80
2023-01-08T17:46:55.888Z,12.69
2023-01-08T17:49:24.413Z,12.62
2023-01-08T17:51:53.393Z,12.49
2023-01-08T17:54:22.623Z,12.77
2023-01-08T17:56:51.479Z,12.82
2023-01-08T17:59:20.656Z,12.42
2023-01-08T18:01:49.521Z,12.86
2023-01-08T18:04:17.905Z,12.75
2023-01-08T18:06:46.490Z,12.66
2023-01-08T18:09:14.404Z,12.57
2023-01-08T18:11:44.959Z,12.74
2023-01-08T18:14:14.704Z,12.79
2023-01-08T18:16:45.634Z,12.72
2023-01-08T18:19:14.409Z,12.68
2023-01-08T18:21:42.623Z,12.77
2023-01-08T18:24:11.063Z,12.76
2023-01-08T18:26:38.919Z,12.58
2023-01-08T18:29:08.487Z,12.67
2023-01-08T18:31:37.031Z,12.46
2023-01-08T18:34:05.012Z,12.77
2023-01-08T18:36:32.950Z,12.78
2023-01-08T18:39:01.464Z,12.70
2023-01-08T18:41:49.151Z,12.78
2023-01-08T18:44:19.870Z,12.69
2023-01-08T18:46:48.259Z,12.81
2023-01-08T18:49:16.942Z,12.80
2023-01-08T18:51:44.750Z,12.77
2023-01-08T18:54:13.093Z,12.77
2023-01-08T18:56:40.996Z,12.77
2023-01-08T18:59:09.219Z,12.77
2023-01-08T19:01:38.830Z,12.55
2023-01-08T19:04:07.422Z,12.76
2023-01-08T19:06:36.327Z,12.68
2023-01-08T19:09:04.593Z,12.74
2023-01-08T19:11:32.634Z,12.64
2023-01-08T19:14:01.035Z,12.63
2023-01-08T19:16:29.076Z,12.61
2023-01-08T19:18:58.763Z,12.65
2023-01-08T19:21:27.443Z,12.67
2023-01-08T19:23:55.527Z,12.52
2023-01-08T19:26:23.469Z,12.65
2023-01-08T19:28:52.028Z,12.64
2023-01-08T19:31:19.974Z,12.66
2023-01-08T19:33:47.918Z,12.54
2023-01-08T19:36:20.209Z,12.20
2023-01-08T19:38:48.463Z,12.61
2023-01-08T19:41:33.483Z,12.46
2023-01-08T19:44:01.403Z,12.64
2023-01-08T19:46:29.749Z,12.62
2023-01-08T19:48:58.621Z,12.39
2023-01-08T19:51:29.252Z,12.34
2023-01-08T19:53:58.893Z,12.62
2023-01-08T19:56:27.229Z,12.29
2023-01-08T19:58:56.472Z,12.63
2023-01-08T20:01:27.761Z,12.62
2023-01-08T20:03:56.762Z,12.35
2023-01-08T20:06:28.803Z,12.52
2023-01-08T20:08:59.100Z,12.61
2023-01-08T20:11:28.512Z,12.37
2023-01-08T20:14:00.408Z,12.17
2023-01-08T20:16:29.794Z,12.44
2023-01-08T20:18:58.244Z,12.34
2023-01-08T20:21:27.595Z,12.50
2023-01-08T20:23:58.700Z,12.60
2023-01-08T20:26:28.488Z,12.56
2023-01-08T20:28:58.577Z,12.57
2023-01-08T20:31:30.669Z,12.58
2023-01-08T20:33:59.750Z,12.63
2023-01-08T20:36:31.941Z,12.59
2023-01-08T20:39:02.763Z,12.62
2023-01-08T20:41:30.816Z,12.60
2023-01-08T20:43:59.202Z,12.59
2023-01-08T20:46:29.776Z,12.29
2023-01-08T20:48:59.848Z,12.42
2023-01-08T20:51:30.278Z,12.52
2023-01-08T20:53:58.385Z,12.39
2023-01-08T20:56:26.302Z,12.53
2023-01-08T20:58:54.870Z,12.54
2023-01-08T21:01:25.927Z,12.36
2023-01-08T21:03:56.965Z,12.53
2023-01-08T21:06:27.224Z,12.29
2023-01-08T21:08:58.396Z,12.50
2023-01-08T21:11:27.115Z,12.46
2023-01-08T21:13:56.794Z,12.06
2023-01-08T21:16:27.555Z,12.36
2023-01-08T21:18:55.662Z,12.25
2023-01-08T21:21:26.936Z,12.10
2023-01-08T21:23:57.400Z,12.18
2023-01-08T21:26:26.161Z,12.11
2023-01-08T21:28:54.208Z,11.86
2023-01-08T21:31:25.372Z,11.88
2023-01-08T21:33:53.456Z,11.89
2023-01-08T21:36:26.991Z,11.70
2023-01-08T21:38:57.267Z,11.83
2023-01-08T21:41:45.340Z,11.62
2023-01-08T21:44:31.219Z,11.67
2023-01-08T21:47:00.591Z,11.56
2023-01-08T21:49:28.978Z,11.37
2023-01-08T21:52:15.393Z,11.44
2023-01-08T21:54:44.568Z,11.57
2023-01-08T21:57:12.616Z,11.36
2023-01-08T21:59:41.030Z,11.39
2023-01-08T22:02:08.930Z,11.40
2023-01-08T22:04:37.266Z,11.01
2023-01-08T22:07:05.710Z,11.20
2023-01-08T22:09:33.552Z,11.23
2023-01-08T22:12:02.819Z,11.06
2023-01-08T22:14:31.363Z,11.29
2023-01-08T22:16:59.270Z,11.22
2023-01-08T22:19:27.103Z,11.05
2023-01-08T22:21:55.653Z,10.88
2023-01-08T22:24:23.485Z,10.80
2023-01-08T22:26:51.504Z,10.79
2023-01-08T22:29:22.961Z,10.91
2023-01-08T22:31:50.842Z,10.87
2023-01-08T22:34:19.067Z,10.56
2023-01-08T22:36:50.959Z,10.58
2023-01-08T22:39:19.300Z,10.74
2023-01-08T22:41:47.111Z,10.84
2023-01-08T22:44:15.307Z,10.75
2023-01-08T22:46:44.640Z,10.78
2023-01-08T22:49:13.517Z,10.77
2023-01-08T22:51:41.885Z,10.69
2023-01-08T22:54:13.872Z,10.72
2023-01-08T22:56:42.623Z,10.76
2023-01-08T22:59:10.571Z,10.75
2023-01-08T23:01:38.513Z,10.62
2023-01-08T23:04:08.195Z,10.72
2023-01-08T23:06:36.071Z,10.69
2023-01-08T23:09:03.924Z,10.72
2023-01-08T23:11:32.544Z,10.42
2023-01-08T23:14:01.890Z,10.65
2023-01-08T23:16:30.030Z,10.69
2023-01-08T23:18:58.650Z,10.29
2023-01-08T23:21:28.475Z,10.57
2023-01-08T23:23:56.265Z,10.57
2023-01-08T23:26:26.847Z,10.62
2023-01-08T23:28:56.060Z,10.49
2023-01-08T23:31:26.886Z,10.54
2023-01-08T23:33:54.836Z,10.33
2023-01-08T23:36:23.736Z,10.30
2023-01-08T23:38:55.328Z,10.55
2023-01-08T23:41:25.961Z,10.51
2023-01-08T23:43:54.776Z,10.38
2023-01-08T23:46:23.149Z,10.33
2023-01-08T23:48:52.240Z,10.47
2023-01-08T23:51:20.023Z,10.47
2023-01-08T23:53:48.364Z,10.41
2023-01-08T23:56:17.854Z,10.35
2023-01-08T23:58:47.737Z,10.03
